createdAt,value
2023-03-15T00:03:24.496Z,65.72
2023-03-15T00:08:48.197Z,65.19
2023-03-15T00:14:08.849Z,64.71
2023-03-15T00:19:29.787Z,64.40
2023-03-15T00:24:50.337Z,63.73
2023-03-15T00:30:11.346Z,63.41
2023-03-15T00:35:36.081Z,63.07
2023-03-15T00:40:57.104Z,63.02
2023-03-15T00:46:19.346Z,63.08
2023-03-15T00:51:40.178Z,62.87
2023-03-15T00:57:01.996Z,62.96
2023-03-15T01:02:22.449Z,62.91
2023-03-15T01:07:45.598Z,62.54
2023-03-15T01:13:07.254Z,63.01
2023-03-15T01:18:28.108Z,63.93
2023-03-15T01:23:49.516Z,64.71
2023-03-15T01:29:09.796Z,64.89
2023-03-15T01:34:30.435Z,65.15
2023-03-15T01:39:51.451Z,65.28
2023-03-15T01:46:09.312Z,65.67
2023-03-15T01:51:59.634Z,66.13
2023-03-15T01:57:31.958Z,66.07
2023-03-15T02:03:03.780Z,66.36
2023-03-15T02:08:32.805Z,66.40
2023-03-15T02:13:56.844Z,66.19
2023-03-15T02:19:34.690Z,65.88
2023-03-15T02:25:18.623Z,65.78
2023-03-15T02:30:39.926Z,65.74
2023-03-15T02:36:17.850Z,65.52
2023-03-15T02:41:42.640Z,64.50
2023-03-15T02:47:12.857Z,64.27
2023-03-15T02:52:33.542Z,63.55
2023-03-15T02:57:56.137Z,63.38
2023-03-15T03:03:16.602Z,62.85
2023-03-15T03:08:37.907Z,62.49
2023-03-15T03:13:59.709Z,62.46
2023-03-15T03:19:25.620Z,62.77
2023-03-15T03:24:46.813Z,62.26
2023-03-15T03:30:13.040Z,62.06
2023-03-15T03:35:38.607Z,61.85
2023-03-15T03:40:59.781Z,61.37
2023-03-15T03:46:22.843Z,61.46
2023-03-15T03:51:46.570Z,63.74
2023-03-15T03:57:07.376Z,66.27
2023-03-15T04:02:29.979Z,67.34
2023-03-15T04:07:55.781Z,68.15
2023-03-15T04:13:16.750Z,68.57
2023-03-15T04:18:37.430Z,68.84
2023-03-15T04:24:02.229Z,68.96
2023-03-15T04:29:38.186Z,69.00
2023-03-15T04:35:11.920Z,68.91
2023-03-15T04:40:44.711Z,69.26
2023-03-15T04:46:32.841Z,68.95
2023-03-15T04:52:12.615Z,69.08
2023-03-15T04:57:58.609Z,69.01
2023-03-15T05:03:45.521Z,68.89
2023-03-15T05:09:26.478Z,68.71
2023-03-15T05:14:57.375Z,68.73
2023-03-15T05:20:36.853Z,69.20
2023-03-15T05:26:11.223Z,69.39
2023-03-15T05:31:41.317Z,69.22
2023-03-15T05:37:22.945Z,69.57
2023-03-15T05:43:15.568Z,69.70
2023-03-15T05:48:55.486Z,69.90
2023-03-15T05:54:26.910Z,69.63
2023-03-15T06:00:19.976Z,69.16
2023-03-15T06:05:44.333Z,68.79
2023-03-15T06:11:10.304Z,70.13
2023-03-15T06:16:31.535Z,71.21
2023-03-15T06:21:54.300Z,72.39
2023-03-15T06:27:24.208Z,73.11
2023-03-15T06:32:46.876Z,72.80
2023-03-15T06:38:07.366Z,72.98
2023-03-15T06:43:28.601Z,73.31
2023-03-15T06:48:48.952Z,72.90
2023-03-15T06:54:10.061Z,72.96
2023-03-15T06:59:30.943Z,72.62
2023-03-15T07:04:51.925Z,72.41
2023-03-15T07:10:12.573Z,72.29
2023-03-15T07:15:33.357Z,72.51
2023-03-15T07:20:58.706Z,72.35
2023-03-15T07:26:19.222Z,72.18
2023-03-15T07:39:35.619Z,73.82
2023-03-15T07:44:56.521Z,74.79
2023-03-15T07:50:17.599Z,74.82
2023-03-15T07:55:38.024Z,73.22
2023-03-15T08:00:58.668Z,72.19
2023-03-15T08:06:19.400Z,72.54
2023-03-15T08:11:40.073Z,72.73
2023-03-15T08:17:00.639Z,72.49
2023-03-15T08:22:21.242Z,71.77
2023-03-15T08:27:44.798Z,70.46
2023-03-15T08:33:07.883Z,68.95
2023-03-15T08:38:28.413Z,68.43
2023-03-15T08:43:49.152Z,68.72
2023-03-15T08:49:09.880Z,69.42
2023-03-15T08:54:30.155Z,69.67
2023-03-15T08:59:50.518Z,69.99
2023-03-15T09:05:11.866Z,69.25
2023-03-15T09:10:34.243Z,68.96
2023-03-15T09:15:56.978Z,69.02
2023-03-15T09:21:17.469Z,68.04
2023-03-15T09:26:38.135Z,66.70
2023-03-15T09:31:58.903Z,65.35
2023-03-15T09:37:21.849Z,64.72
2023-03-15T09:42:45.132Z,64.20
2023-03-15T09:48:18.063Z,65.01
2023-03-15T09:54:05.779Z,64.75
2023-03-15T09:59:32.838Z,62.68
2023-03-15T10:04:59.783Z,64.34
2023-03-15T10:10:28.064Z,65.03
2023-03-15T10:16:06.943Z,64.35
2023-03-15T10:21:55.927Z,62.28
2023-03-15T10:27:34.649Z,61.35
2023-03-15T10:33:00.146Z,61.65
2023-03-15T10:38:23.011Z,64.73
2023-03-15T10:43:58.836Z,66.87
2023-03-15T10:49:19.479Z,67.42
2023-03-15T10:54:41.788Z,67.56
2023-03-15T11:00:09.138Z,67.44
2023-03-15T11:05:51.000Z,61.46
2023-03-15T11:11:11.873Z,53.16
2023-03-15T11:16:36.135Z,41.14
2023-03-15T11:21:58.987Z,39.93
2023-03-15T11:27:22.265Z,49.28
2023-03-15T11:32:45.232Z,47.51
2023-03-15T11:38:15.289Z,42.15
2023-03-15T11:43:50.168Z,44.95
2023-03-15T11:49:29.540Z,44.44
2023-03-15T11:54:54.252Z,39.67
2023-03-15T12:00:18.241Z,32.80
2023-03-15T12:05:45.476Z,29.21
2023-03-15T12:11:23.856Z,27.97
2023-03-15T12:16:46.474Z,28.55
2023-03-15T12:22:15.423Z,24.52
2023-03-15T12:27:41.260Z,23.66
2023-03-15T12:33:03.518Z,23.16
2023-03-15T12:38:24.363Z,30.17
2023-03-15T12:43:52.137Z,26.28
2023-03-15T12:49:24.852Z,23.21
2023-03-15T12:54:59.985Z,21.53
2023-03-15T13:00:23.187Z,22.66
2023-03-15T13:06:04.228Z,22.20
2023-03-15T13:11:41.139Z,22.09
2023-03-15T13:17:24.551Z,21.95
2023-03-15T13:23:15.018Z,22.67
2023-03-15T13:28:39.752Z,22.60
2023-03-15T13:34:22.052Z,23.45
2023-03-15T13:40:05.390Z,22.77
2023-03-15T13:45:25.892Z,23.18
2023-03-15T13:50:50.478Z,24.17
2023-03-15T13:56:17.319Z,26.13
2023-03-15T14:01:42.481Z,25.83
2023-03-15T14:07:16.230Z,26.78
2023-03-15T14:12:37.291Z,33.11
2023-03-15T14:18:02.034Z,30.79
2023-03-15T14:23:24.879Z,32.70
2023-03-15T14:28:54.582Z,37.63
2023-03-15T14:34:33.541Z,36.65
2023-03-15T14:40:15.018Z,34.21
2023-03-15T14:45:38.851Z,31.86
2023-03-15T14:51:00.117Z,29.35
2023-03-15T14:56:20.856Z,32.66
2023-03-15T15:01:47.377Z,38.28
2023-03-15T15:07:12.469Z,32.53
2023-03-15T15:12:36.209Z,37.74
2023-03-15T15:17:58.272Z,37.73
2023-03-15T15:23:22.522Z,35.84
2023-03-15T15:28:42.981Z,39.68
2023-03-15T15:34:03.324Z,44.13
2023-03-15T15:39:27.478Z,46.86
2023-03-15T15:44:48.279Z,49.21
2023-03-15T15:50:12.338Z,48.93
2023-03-15T15:55:35.752Z,49.24
2023-03-15T16:00:56.382Z,51.32
2023-03-15T16:06:19.713Z,52.45
2023-03-15T16:11:40.904Z,52.55
2023-03-15T16:17:01.533Z,53.78
2023-03-15T16:22:23.719Z,53.61
2023-03-15T16:27:44.775Z,53.88
2023-03-15T16:33:14.411Z,54.10
2023-03-15T16:38:35.720Z,54.85
2023-03-15T16:43:56.188Z,55.89
2023-03-15T16:49:16.564Z,56.96
2023-03-15T16:54:41.179Z,57.75
2023-03-15T17:00:03.920Z,58.44
2023-03-15T17:05:26.651Z,59.22
2023-03-15T17:10:47.385Z,59.13
2023-03-15T17:16:16.617Z,59.20
2023-03-15T17:21:37.509Z,59.64
2023-03-15T17:26:58.663Z,59.87
2023-03-15T17:32:19.308Z,60.44
2023-03-15T17:37:44.557Z,60.44
2023-03-15T17:43:04.974Z,60.50
2023-03-15T17:48:25.526Z,61.06
2023-03-15T17:53:47.239Z,61.27
2023-03-15T17:59:10.759Z,62.01
2023-03-15T18:04:31.137Z,62.47
2023-03-15T18:09:51.550Z,62.23
2023-03-15T18:15:14.309Z,62.89
2023-03-15T18:20:36.220Z,63.27
2023-03-15T18:25:56.466Z,63.14
2023-03-15T18:31:21.105Z,63.67
2023-03-15T18:36:41.478Z,63.72
2023-03-15T18:42:02.227Z,64.78
2023-03-15T18:47:22.723Z,64.37
2023-03-15T18:52:43.045Z,64.30
2023-03-15T18:58:05.049Z,64.23
2023-03-15T19:03:25.662Z,64.31
2023-03-15T19:08:46.492Z,64.34
2023-03-15T19:14:07.658Z,64.70
2023-03-15T19:19:28.237Z,64.49
2023-03-15T19:24:48.778Z,64.46
2023-03-15T19:30:17.897Z,64.93
2023-03-15T19:35:38.509Z,65.52
2023-03-15T19:41:06.645Z,65.32
2023-03-15T19:46:27.481Z,65.86
2023-03-15T19:51:48.393Z,66.22
2023-03-15T19:57:09.615Z,66.43
2023-03-15T20:02:32.657Z,66.39
2023-03-15T20:07:54.256Z,66.20
2023-03-15T20:13:15.300Z,67.03
2023-03-15T20:18:36.041Z,66.93
2023-03-15T20:23:56.820Z,66.69
2023-03-15T20:29:18.008Z,66.76
2023-03-15T20:34:41.495Z,67.17
2023-03-15T20:40:08.306Z,66.90
2023-03-15T20:45:28.727Z,66.84
2023-03-15T20:50:49.576Z,66.66
2023-03-15T20:56:10.748Z,66.80
2023-03-15T21:01:31.869Z,66.49
2023-03-15T21:06:52.152Z,66.73
2023-03-15T21:12:12.823Z,66.52
2023-03-15T21:17:33.541Z,66.58
2023-03-15T21:22:54.342Z,66.46
2023-03-15T21:28:14.801Z,66.24
2023-03-15T21:33:35.833Z,66.18
2023-03-15T21:38:56.396Z,66.37
2023-03-15T21:44:16.967Z,65.98
2023-03-15T21:49:37.382Z,66.06
2023-03-15T21:54:58.021Z,66.02
2023-03-15T22:00:20.162Z,66.13
2023-03-15T22:05:41.251Z,66.14
2023-03-15T22:11:02.373Z,66.16
2023-03-15T22:16:23.125Z,66.11
2023-03-15T22:21:43.806Z,65.80
2023-03-15T22:27:04.228Z,65.76
2023-03-15T22:32:24.747Z,65.77
2023-03-15T22:37:45.246Z,65.89
2023-03-15T22:43:07.345Z,65.56
2023-03-15T22:48:28.117Z,65.75
2023-03-15T22:53:49.282Z,65.65
2023-03-15T22:59:10.094Z,65.39
2023-03-15T23:04:30.997Z,65.33
2023-03-15T23:09:51.597Z,65.37
2023-03-15T23:15:14.202Z,65.42
2023-03-15T23:20:35.919Z,65.66
2023-03-15T23:25:56.627Z,65.55
2023-03-15T23:31:17.864Z,65.32
2023-03-15T23:36:38.828Z,65.00
2023-03-15T23:41:59.436Z,65.22
2023-03-15T23:47:25.027Z,64.99
2023-03-15T23:52:45.330Z,65.06
2023-03-15T23:58:07.405Z,65.00
